createdAt,value
2019-05-05T00:01:48.494Z,98131.80
2019-05-05T00:04:15.119Z,98132.34
2019-05-05T00:06:41.692Z,98133.20
2019-05-05T00:09:08.281Z,98136.00
2019-05-05T00:11:35.239Z,98133.88
2019-05-05T00:14:01.845Z,98140.98
2019-05-05T00:16:28.583Z,98141.87
2019-05-05T00:18:55.173Z,98144.18
2019-05-05T00:21:21.789Z,98154.16
2019-05-05T00:23:48.426Z,98144.44
2019-05-05T00:26:15.075Z,98150.84
2019-05-05T00:28:41.694Z,98161.78
2019-05-05T00:31:08.308Z,98152.89
2019-05-05T00:33:34.880Z,98158.58
2019-05-05T00:36:04.557Z,98159.55
2019-05-05T00:38:29.771Z,98166.88
2019-05-05T00:40:56.503Z,98167.59
2019-05-05T00:43:25.106Z,98173.98
2019-05-05T00:45:51.432Z,98186.20
2019-05-05T00:48:18.007Z,98182.95
2019-05-05T00:50:45.024Z,98179.00
2019-05-05T00:53:11.660Z,98184.04
2019-05-05T00:55:38.304Z,98179.84
2019-05-05T00:58:05.315Z,98179.23
2019-05-05T01:00:32.016Z,98184.40
2019-05-05T01:02:58.710Z,98195.33
2019-05-05T01:05:25.416Z,98190.04
2019-05-05T01:07:52.067Z,98197.48
2019-05-05T01:10:18.712Z,98198.09
2019-05-05T01:12:45.318Z,98200.37
2019-05-05T01:15:11.906Z,98204.92
2019-05-05T01:17:38.517Z,98206.48
2019-05-05T01:20:06.950Z,98214.05
2019-05-05T01:22:34.203Z,98217.30
2019-05-05T01:25:00.887Z,98225.48
2019-05-05T01:27:27.499Z,98228.36
2019-05-05T01:29:54.640Z,98227.25
2019-05-05T01:32:21.408Z,98235.77
2019-05-05T01:34:47.987Z,98228.09
2019-05-05T01:37:15.224Z,98233.84
2019-05-05T01:39:41.950Z,98239.97
2019-05-05T01:42:08.571Z,98242.13
2019-05-05T01:44:35.316Z,98245.13
2019-05-05T01:47:01.958Z,98245.49
2019-05-05T01:49:28.537Z,98251.25
2019-05-05T01:51:55.430Z,98250.30
2019-05-05T01:54:22.117Z,98246.81
2019-05-05T01:56:48.721Z,98249.70
2019-05-05T01:59:15.304Z,98245.62
2019-05-05T02:01:41.908Z,98248.05
2019-05-05T02:04:08.490Z,98254.75
2019-05-05T02:06:35.237Z,98246.23
2019-05-05T02:09:02.007Z,98256.08
2019-05-05T02:11:28.743Z,98252.71
2019-05-05T02:13:55.317Z,98256.31
2019-05-05T02:16:21.909Z,98255.20
2019-05-05T02:18:48.567Z,98260.12
2019-05-05T02:21:15.140Z,98253.28
2019-05-05T02:23:41.758Z,98252.56
2019-05-05T02:26:08.491Z,98255.77
2019-05-05T02:28:35.108Z,98249.41
2019-05-05T02:31:01.696Z,98257.57
2019-05-05T02:33:28.369Z,98256.97
2019-05-05T02:35:55.815Z,98260.21
2019-05-05T02:38:22.620Z,98261.05
2019-05-05T02:40:49.191Z,98263.09
2019-05-05T02:43:15.810Z,98272.70
2019-05-05T02:45:44.177Z,98274.02
2019-05-05T02:48:10.703Z,98286.61
2019-05-05T02:50:51.082Z,98286.48
2019-05-05T02:53:05.603Z,98283.00
2019-05-05T02:55:34.547Z,98295.25
2019-05-05T02:58:00.532Z,98302.83
2019-05-05T03:00:27.101Z,98306.78
2019-05-05T03:02:53.957Z,98309.55
2019-05-05T03:05:20.645Z,98315.31
2019-05-05T03:07:47.250Z,98325.41
2019-05-05T03:10:14.132Z,98321.08
2019-05-05T03:12:40.829Z,98332.17
2019-05-05T03:15:07.402Z,98332.77
2019-05-05T03:17:34.202Z,98335.65
2019-05-05T03:20:00.845Z,98341.17
2019-05-05T03:22:27.454Z,98351.62
2019-05-05T03:24:54.243Z,98355.82
2019-05-05T03:27:20.925Z,98362.70
2019-05-05T03:29:47.501Z,98367.73
2019-05-05T03:32:16.080Z,98362.32
2019-05-05T03:34:44.389Z,98370.13
2019-05-05T03:37:10.717Z,98369.30
2019-05-05T03:39:37.312Z,98377.57
2019-05-05T03:42:03.889Z,98373.96
2019-05-05T03:44:30.502Z,98372.54
2019-05-05T03:46:57.094Z,98383.42
2019-05-05T03:49:24.386Z,98377.16
2019-05-05T03:51:51.055Z,98389.75
2019-05-05T03:54:19.257Z,98392.28
2019-05-05T03:56:48.849Z,98399.00
2019-05-05T03:59:15.459Z,98397.91
2019-05-05T04:01:43.874Z,98408.22
2019-05-05T04:04:10.366Z,98406.17
2019-05-05T04:06:36.936Z,98412.62
2019-05-05T04:09:04.288Z,98416.26
2019-05-05T04:11:30.982Z,98420.33
2019-05-05T04:13:57.591Z,98423.92
2019-05-05T04:16:24.184Z,98427.62
2019-05-05T04:18:50.791Z,98430.49
2019-05-05T04:21:30.390Z,98436.84
2019-05-05T04:23:45.694Z,98427.97
2019-05-05T04:26:14.128Z,98443.44
2019-05-05T04:28:40.628Z,98446.66
2019-05-05T04:31:07.204Z,98445.45
2019-05-05T04:33:34.205Z,98455.17
2019-05-05T04:36:00.871Z,98443.15
2019-05-05T04:38:27.446Z,98451.66
2019-05-05T04:40:54.287Z,98448.86
2019-05-05T04:43:21.020Z,98454.39
2019-05-05T04:45:47.603Z,98460.73
2019-05-05T04:48:14.190Z,98460.48
2019-05-05T04:50:40.799Z,98458.53
2019-05-05T04:53:07.369Z,98470.14
2019-05-05T04:55:33.973Z,98470.50
2019-05-05T04:58:00.555Z,98475.15
2019-05-05T05:00:27.174Z,98480.27
2019-05-05T05:02:53.987Z,98474.84
2019-05-05T05:05:24.425Z,98476.41
2019-05-05T05:07:54.185Z,98478.89
2019-05-05T05:10:19.491Z,98470.46
2019-05-05T05:12:46.117Z,98472.61
2019-05-05T05:15:14.583Z,98482.05
2019-05-05T05:17:41.038Z,98485.84
2019-05-05T05:20:07.630Z,98492.64
2019-05-05T05:22:34.203Z,98491.64
2019-05-05T05:25:00.803Z,98495.36
2019-05-05T05:27:27.372Z,98496.89
2019-05-05T05:29:54.509Z,98505.27
2019-05-05T05:32:24.709Z,98509.33
2019-05-05T05:34:51.520Z,98509.70
2019-05-05T05:37:18.099Z,98514.59
2019-05-05T05:39:44.716Z,98522.14
2019-05-05T05:42:11.285Z,98521.87
2019-05-05T05:44:37.871Z,98529.88
2019-05-05T05:47:04.479Z,98533.94
2019-05-05T05:49:31.054Z,98536.67
2019-05-05T05:51:57.672Z,98535.36
2019-05-05T05:54:24.253Z,98532.39
2019-05-05T05:56:50.871Z,98538.97
2019-05-05T05:59:17.435Z,98535.59
2019-05-05T06:01:44.051Z,98546.14
2019-05-05T06:04:10.634Z,98546.98
2019-05-05T06:06:37.226Z,98547.55
2019-05-05T06:09:04.314Z,98548.77
2019-05-05T06:11:31.089Z,98551.78
2019-05-05T06:13:57.690Z,98554.28
2019-05-05T06:16:24.465Z,98552.48
2019-05-05T06:18:51.042Z,98558.13
2019-05-05T06:21:17.660Z,98557.18
2019-05-05T06:23:44.228Z,98568.56
2019-05-05T06:26:11.727Z,98569.98
2019-05-05T06:28:38.294Z,98573.84
2019-05-05T06:31:05.088Z,98572.05
2019-05-05T06:33:31.759Z,98572.42
2019-05-05T06:35:58.364Z,98577.22
2019-05-05T06:38:24.942Z,98579.75
2019-05-05T06:40:53.593Z,98583.33
2019-05-05T06:43:19.866Z,98589.34
2019-05-05T06:45:46.591Z,98594.04
2019-05-05T06:48:13.540Z,98593.46
2019-05-05T06:50:40.241Z,98594.31
2019-05-05T06:53:06.849Z,98598.27
2019-05-05T06:55:34.106Z,98598.84
2019-05-05T06:58:00.942Z,98598.00
2019-05-05T07:00:27.570Z,98603.27
2019-05-05T07:02:54.284Z,98607.79
2019-05-05T07:05:20.852Z,98606.10
2019-05-05T07:07:47.466Z,98611.48
2019-05-05T07:10:14.196Z,98615.53
2019-05-05T07:12:40.821Z,98612.89
2019-05-05T07:15:07.389Z,98620.33
2019-05-05T07:17:34.012Z,98622.86
2019-05-05T07:20:00.572Z,98617.59
2019-05-05T07:22:27.189Z,98625.12
2019-05-05T07:24:54.270Z,98623.44
2019-05-05T07:27:21.057Z,98630.13
2019-05-05T07:29:47.656Z,98630.23
2019-05-05T07:32:14.383Z,98629.52
2019-05-05T07:34:41.011Z,98630.94
2019-05-05T07:37:07.622Z,98628.40
2019-05-05T07:39:34.198Z,98638.30
2019-05-05T07:42:00.893Z,98638.39
2019-05-05T07:44:29.661Z,98640.28
2019-05-05T07:46:55.817Z,98632.01
2019-05-05T07:49:24.181Z,98641.33
2019-05-05T07:51:50.717Z,98642.74
2019-05-05T07:54:17.407Z,98647.17
2019-05-05T07:56:44.481Z,98651.25
2019-05-05T07:59:11.275Z,98649.94
2019-05-05T08:01:37.853Z,98648.24
2019-05-05T08:04:04.679Z,98651.45
2019-05-05T08:06:31.355Z,98647.40
2019-05-05T08:08:57.994Z,98659.73
2019-05-05T08:11:24.609Z,98653.52
2019-05-05T08:13:51.206Z,98665.14
2019-05-05T08:16:17.782Z,98662.03
2019-05-05T08:18:44.420Z,98665.31
2019-05-05T08:21:10.987Z,98661.73
2019-05-05T08:23:37.679Z,98662.02
2019-05-05T08:26:04.618Z,98664.55
2019-05-05T08:28:31.334Z,98667.08
2019-05-05T08:30:57.894Z,98672.25
2019-05-05T08:33:24.547Z,98674.89
2019-05-05T08:38:36.835Z,98679.88
2019-05-05T08:41:04.556Z,98677.34
2019-05-05T08:43:31.373Z,98679.23
2019-05-05T08:45:57.946Z,98683.76
2019-05-05T08:48:24.738Z,98677.27
2019-05-05T08:50:51.439Z,98680.00
2019-05-05T08:53:18.053Z,98688.38
2019-05-05T08:55:44.701Z,98690.77
2019-05-05T08:58:11.341Z,98692.66
2019-05-05T09:00:37.930Z,98695.92
2019-05-05T09:03:04.508Z,98687.75
2019-05-05T09:05:31.114Z,98690.01
2019-05-05T09:07:57.702Z,98688.31
2019-05-05T09:10:24.339Z,98687.00
2019-05-05T09:12:50.965Z,98696.22
2019-05-05T09:15:17.587Z,98697.53
2019-05-05T09:17:44.210Z,98700.55
2019-05-05T09:20:10.873Z,98705.06
2019-05-05T09:22:37.466Z,98694.16
2019-05-05T09:25:04.386Z,98699.05
2019-05-05T09:27:31.122Z,98703.38
2019-05-05T09:29:57.739Z,98703.47
2019-05-05T09:32:24.435Z,98701.58
2019-05-05T09:34:58.342Z,98708.08
2019-05-05T09:37:24.931Z,98707.13
2019-05-05T09:39:51.523Z,98714.09
2019-05-05T09:42:21.138Z,98709.20
2019-05-05T09:44:47.727Z,98711.27
2019-05-05T09:47:14.302Z,98708.94
2019-05-05T09:49:41.153Z,98714.11
2019-05-05T09:52:07.743Z,98721.91
2019-05-05T09:54:34.675Z,98720.94
2019-05-05T09:57:01.496Z,98718.63
2019-05-05T09:59:29.599Z,98729.42
2019-05-05T10:01:56.190Z,98728.97
2019-05-05T10:04:24.332Z,98731.55
2019-05-05T10:06:51.036Z,98726.56
2019-05-05T10:09:17.615Z,98735.22
2019-05-05T10:11:44.993Z,98741.09
2019-05-05T10:14:11.711Z,98737.33
2019-05-05T10:16:41.140Z,98739.67
2019-05-05T10:19:07.715Z,98738.64
2019-05-05T10:21:35.410Z,98743.16
2019-05-05T10:24:01.989Z,98741.09
2019-05-05T10:26:28.581Z,98742.53
2019-05-05T10:28:55.153Z,98734.73
2019-05-05T10:31:24.009Z,98735.20
2019-05-05T10:33:50.076Z,98733.98
2019-05-05T10:36:16.731Z,98735.86
2019-05-05T10:38:44.480Z,98736.80
2019-05-05T10:41:13.425Z,98740.18
2019-05-05T10:43:39.577Z,98743.09
2019-05-05T10:46:06.228Z,98748.98
2019-05-05T10:48:34.035Z,98745.23
2019-05-05T10:51:00.817Z,98751.16
2019-05-05T10:53:27.374Z,98748.70
2019-05-05T10:55:54.053Z,98752.94
2019-05-05T10:58:20.613Z,98750.68
2019-05-05T11:00:47.206Z,98747.55
2019-05-05T11:03:14.839Z,98749.70
2019-05-05T11:05:41.888Z,98755.57
2019-05-05T11:08:08.464Z,98754.82
2019-05-05T11:10:35.063Z,98756.98
2019-05-05T11:13:01.646Z,98751.24
2019-05-05T11:15:28.285Z,98752.56
2019-05-05T11:17:56.994Z,98752.56
2019-05-05T11:20:24.796Z,98759.05
2019-05-05T11:22:51.495Z,98755.45
2019-05-05T11:25:18.107Z,98755.72
2019-05-05T11:27:44.692Z,98754.69
2019-05-05T11:30:11.274Z,98754.50
2019-05-05T11:32:37.873Z,98756.47
2019-05-05T11:35:04.808Z,98760.10
2019-05-05T11:37:31.568Z,98764.70
2019-05-05T11:39:58.148Z,98769.78
2019-05-05T11:42:24.752Z,98776.65
2019-05-05T11:44:51.332Z,98779.13
2019-05-05T11:47:17.938Z,98778.56
2019-05-05T11:49:44.528Z,98783.61
2019-05-05T11:52:11.131Z,98782.94
2019-05-05T11:54:37.708Z,98780.48
2019-05-05T11:57:04.533Z,98782.36
2019-05-05T11:59:31.264Z,98782.88
2019-05-05T12:01:57.876Z,98786.45
2019-05-05T12:04:24.511Z,98782.20
2019-05-05T12:06:51.134Z,98779.61
2019-05-05T12:09:21.031Z,98784.12
2019-05-05T12:11:47.704Z,98786.36
2019-05-05T12:14:14.441Z,98785.56
2019-05-05T12:16:41.075Z,98785.36
2019-05-05T12:19:07.654Z,98788.17
2019-05-05T12:21:34.366Z,98784.59
2019-05-05T12:24:00.938Z,98786.66
2019-05-05T12:26:27.554Z,98788.31
2019-05-05T12:28:54.596Z,98793.96
2019-05-05T12:31:21.326Z,98788.59
2019-05-05T12:33:47.935Z,98788.95
2019-05-05T12:36:15.187Z,98792.44
2019-05-05T12:38:43.780Z,98791.97
2019-05-05T12:41:10.288Z,98788.39
2019-05-05T12:43:36.886Z,98787.71
2019-05-05T12:46:04.504Z,98783.18
2019-05-05T12:48:31.239Z,98783.36
2019-05-05T12:50:57.819Z,98787.08
2019-05-05T12:53:24.412Z,98793.57
2019-05-05T12:55:50.984Z,98798.84
2019-05-05T12:58:18.340Z,98790.56
2019-05-05T13:00:48.099Z,98790.66
2019-05-05T13:03:14.240Z,98792.45
2019-05-05T13:05:40.813Z,98790.56
2019-05-05T13:08:07.432Z,98789.61
2019-05-05T13:10:34.029Z,98781.97
2019-05-05T13:13:00.614Z,98781.66
2019-05-05T13:15:27.220Z,98784.10
2019-05-05T13:17:54.300Z,98781.13
2019-05-05T13:20:20.976Z,98784.77
2019-05-05T13:22:47.607Z,98778.82
2019-05-05T13:25:14.179Z,98770.22
2019-05-05T13:27:43.766Z,98772.52
2019-05-05T13:30:10.393Z,98774.84
2019-05-05T13:32:36.949Z,98777.28
2019-05-05T13:35:04.061Z,98779.71
2019-05-05T13:37:33.754Z,98778.25
2019-05-05T13:40:00.642Z,98779.00
2019-05-05T13:42:27.245Z,98784.17
2019-05-05T13:44:58.023Z,98788.13
2019-05-05T13:47:23.862Z,98788.98
2019-05-05T13:49:50.641Z,98785.39
2019-05-05T13:52:17.227Z,98783.48
2019-05-05T13:54:43.956Z,98785.92
2019-05-05T13:57:10.583Z,98780.16
2019-05-05T13:59:37.426Z,98781.75
2019-05-05T14:02:04.024Z,98785.84
2019-05-05T14:04:30.654Z,98783.09
2019-05-05T14:06:57.223Z,98779.40
2019-05-05T14:09:23.919Z,98777.97
2019-05-05T14:11:50.535Z,98784.47
2019-05-05T14:14:17.163Z,98792.22
2019-05-05T14:16:44.595Z,98788.63
2019-05-05T14:19:11.561Z,98790.55
2019-05-05T14:21:38.131Z,98786.27
2019-05-05T14:24:04.748Z,98784.73
2019-05-05T14:26:32.422Z,98787.91
2019-05-05T14:28:59.754Z,98793.78
2019-05-05T14:31:26.360Z,98796.11
2019-05-05T14:33:54.205Z,98795.89
2019-05-05T14:36:24.437Z,98804.08
2019-05-05T14:38:51.202Z,98811.42
2019-05-05T14:41:17.784Z,98803.02
2019-05-05T14:43:44.403Z,98803.14
2019-05-05T14:46:10.978Z,98808.06
2019-05-05T14:48:37.577Z,98801.83
2019-05-05T14:51:04.155Z,98798.81
2019-05-05T14:53:30.738Z,98799.18
2019-05-05T14:55:57.411Z,98797.48
2019-05-05T14:58:23.986Z,98809.38
2019-05-05T15:00:50.755Z,98809.86
2019-05-05T15:03:17.332Z,98803.73
2019-05-05T15:05:44.383Z,98805.42
2019-05-05T15:08:13.530Z,98811.66
2019-05-05T15:10:39.538Z,98810.70
2019-05-05T15:13:06.120Z,98812.98
2019-05-05T15:15:32.826Z,98810.00
2019-05-05T15:18:03.860Z,98812.27
2019-05-05T15:20:29.983Z,98809.27
2019-05-05T15:22:58.500Z,98813.70
2019-05-05T15:25:24.956Z,98820.78
2019-05-05T15:27:51.529Z,98824.38
2019-05-05T15:30:19.429Z,98827.97
2019-05-05T15:32:46.025Z,98817.14
2019-05-05T15:35:14.323Z,98814.97
2019-05-05T15:37:41.136Z,98823.48
2019-05-05T15:40:07.785Z,98818.78
2019-05-05T15:42:34.370Z,98815.77
2019-05-05T15:45:04.023Z,98816.24
2019-05-05T15:47:30.788Z,98815.40
2019-05-05T15:50:01.279Z,98816.02
2019-05-05T15:52:27.837Z,98815.17
2019-05-05T15:54:54.449Z,98815.64
2019-05-05T15:57:21.097Z,98817.55
2019-05-05T15:59:47.752Z,98815.95
2019-05-05T16:02:14.327Z,98817.02
2019-05-05T16:04:40.957Z,98818.92
2019-05-05T16:07:08.640Z,98815.91
2019-05-05T16:09:35.294Z,98815.53
2019-05-05T16:12:03.654Z,98815.78
2019-05-05T16:14:30.201Z,98815.14
2019-05-05T16:16:56.780Z,98811.83
2019-05-05T16:19:24.728Z,98813.73
2019-05-05T16:21:51.716Z,98818.27
2019-05-05T16:24:18.296Z,98817.63
2019-05-05T16:26:44.926Z,98815.70
2019-05-05T16:29:11.530Z,98810.27
2019-05-05T16:31:38.158Z,98810.84
2019-05-05T16:34:04.739Z,98821.23
2019-05-05T16:36:33.434Z,98826.63
2019-05-05T16:38:59.717Z,98827.34
2019-05-05T16:41:26.328Z,98828.02
2019-05-05T16:43:53.461Z,98820.30
2019-05-05T16:46:20.210Z,98820.98
2019-05-05T16:48:46.780Z,98815.94
2019-05-05T16:51:13.850Z,98816.04
2019-05-05T16:53:40.531Z,98813.03
2019-05-05T16:56:07.152Z,98815.77
2019-05-05T16:58:33.742Z,98823.69
2019-05-05T17:01:00.334Z,98821.63
2019-05-05T17:03:26.928Z,98820.30
2019-05-05T17:05:54.590Z,98823.89
2019-05-05T17:08:21.845Z,98830.11
2019-05-05T17:10:48.461Z,98819.56
2019-05-05T17:13:15.407Z,98826.63
2019-05-05T17:15:43.975Z,98829.37
2019-05-05T17:18:10.748Z,98828.89
2019-05-05T17:20:37.422Z,98823.72
2019-05-05T17:23:04.225Z,98835.69
2019-05-05T17:25:30.866Z,98840.59
2019-05-05T17:27:59.765Z,98845.88
2019-05-05T17:30:27.215Z,98842.39
2019-05-05T17:32:54.421Z,98845.98
2019-05-05T17:35:21.165Z,98853.89
2019-05-05T17:37:47.843Z,98851.63
2019-05-05T17:40:14.410Z,98852.57
2019-05-05T17:42:41.030Z,98851.77
2019-05-05T17:45:07.614Z,98848.84
2019-05-05T17:47:34.437Z,98854.59
2019-05-05T17:50:01.015Z,98853.01
2019-05-05T17:52:27.642Z,98853.58
2019-05-05T17:54:54.292Z,98859.70
2019-05-05T17:57:20.857Z,98851.04
2019-05-05T17:59:49.470Z,98863.76
2019-05-05T18:02:15.771Z,98859.05
2019-05-05T18:04:44.294Z,98859.53
2019-05-05T18:07:10.703Z,98867.54
2019-05-05T18:09:37.329Z,98863.21
2019-05-05T18:12:04.370Z,98875.93
2019-05-05T18:14:31.110Z,98878.19
2019-05-05T18:16:57.688Z,98883.59
2019-05-05T18:19:24.756Z,98886.44
2019-05-05T18:21:51.539Z,98883.89
2019-05-05T18:24:18.137Z,98890.11
2019-05-05T18:26:44.772Z,98884.09
2019-05-05T18:29:11.622Z,98885.51
2019-05-05T18:31:38.219Z,98887.77
2019-05-05T18:34:04.815Z,98890.13
2019-05-05T18:36:31.424Z,98893.24
2019-05-05T18:38:58.026Z,98892.49
2019-05-05T18:41:24.595Z,98894.78
2019-05-05T18:43:51.199Z,98897.05
2019-05-05T18:46:17.774Z,98894.98
2019-05-05T18:48:44.399Z,98892.81
2019-05-05T18:51:10.975Z,98891.22
2019-05-05T18:53:37.539Z,98890.47
2019-05-05T18:56:04.159Z,98899.33
2019-05-05T18:58:30.722Z,98898.95
2019-05-05T19:00:57.337Z,98891.51
2019-05-05T19:03:24.509Z,98895.56
2019-05-05T19:05:53.394Z,98900.36
2019-05-05T19:08:19.639Z,98904.79
2019-05-05T19:10:46.262Z,98897.10
2019-05-05T19:13:13.658Z,98905.95
2019-05-05T19:15:40.435Z,98908.69
2019-05-05T19:18:07.019Z,98914.16
2019-05-05T19:20:35.223Z,98923.48
2019-05-05T19:23:05.091Z,98923.57
2019-05-05T19:25:30.340Z,98931.11
2019-05-05T19:27:56.923Z,98937.41
2019-05-05T19:30:25.529Z,98932.70
2019-05-05T19:32:54.076Z,98940.74
2019-05-05T19:35:20.334Z,98931.61
2019-05-05T19:37:46.933Z,98938.86
2019-05-05T19:40:14.148Z,98937.64
2019-05-05T19:42:40.884Z,98935.09
2019-05-05T19:45:07.506Z,98933.02
2019-05-05T19:47:34.125Z,98939.14
2019-05-05T19:50:00.782Z,98934.25
2019-05-05T19:52:27.361Z,98936.78
2019-05-05T19:54:54.676Z,98928.88
2019-05-05T19:57:21.433Z,98933.49
2019-05-05T19:59:48.052Z,98933.40
2019-05-05T20:02:14.623Z,98928.03
2019-05-05T20:04:41.244Z,98925.27
2019-05-05T20:07:07.821Z,98929.98
2019-05-05T20:09:34.404Z,98924.23
2019-05-05T20:12:00.999Z,98926.87
2019-05-05T20:14:27.567Z,98929.13
2019-05-05T20:16:54.655Z,98927.91
2019-05-05T20:19:21.427Z,98932.45
2019-05-05T20:21:48.073Z,98936.88
2019-05-05T20:24:14.650Z,98940.36
2019-05-05T20:26:41.279Z,98934.25
2019-05-05T20:29:13.759Z,98934.63
2019-05-05T20:31:36.177Z,98939.52
2019-05-05T20:34:03.937Z,98947.42
2019-05-05T20:36:30.753Z,98939.14
2019-05-05T20:38:57.330Z,98942.16
2019-05-05T20:41:24.892Z,98944.04
2019-05-05T20:43:54.012Z,98938.02
2019-05-05T20:46:20.113Z,98947.70
2019-05-05T20:48:46.683Z,98942.63
2019-05-05T20:51:13.790Z,98947.98
2019-05-05T20:53:40.560Z,98938.77
2019-05-05T20:56:07.178Z,98938.77
2019-05-05T20:58:33.823Z,98934.81
2019-05-05T21:01:00.546Z,98931.70
2019-05-05T21:03:27.127Z,98929.82
2019-05-05T21:05:53.881Z,98929.82
2019-05-05T21:08:20.601Z,98930.11
2019-05-05T21:10:47.220Z,98925.30
2019-05-05T21:13:14.399Z,98932.64
2019-05-05T21:15:41.166Z,98927.37
2019-05-05T21:18:07.748Z,98933.87
2019-05-05T21:20:34.786Z,98931.61
2019-05-05T21:23:03.524Z,98923.70
2019-05-05T21:25:29.882Z,98924.08
2019-05-05T21:27:56.542Z,98923.10
2019-05-05T21:30:23.856Z,98928.38
2019-05-05T21:32:50.604Z,98928.28
2019-05-05T21:35:17.174Z,98931.30
2019-05-05T21:37:44.844Z,98930.83
2019-05-05T21:40:13.816Z,98927.72
2019-05-05T21:42:39.879Z,98928.56
2019-05-05T21:45:06.455Z,98931.11
2019-05-05T21:47:34.493Z,98921.50
2019-05-05T21:50:03.599Z,98924.89
2019-05-05T21:52:29.546Z,98920.56
2019-05-05T21:54:56.152Z,98923.20
2019-05-05T21:57:23.457Z,98922.34
2019-05-05T21:59:55.613Z,98930.26
2019-05-05T22:02:18.436Z,98930.26
2019-05-05T22:04:45.009Z,98925.45
2019-05-05T22:07:11.617Z,98927.63
2019-05-05T22:09:38.198Z,98925.45
2019-05-05T22:12:04.775Z,98918.02
2019-05-05T22:14:31.357Z,98923.67
2019-05-05T22:16:57.941Z,98921.50
2019-05-05T22:19:24.520Z,98920.66
2019-05-05T22:21:51.126Z,98921.97
2019-05-05T22:24:17.701Z,98929.50
2019-05-05T22:26:44.678Z,98923.86
2019-05-05T22:29:13.675Z,98916.89
2019-05-05T22:31:39.780Z,98919.91
2019-05-05T22:34:06.365Z,98917.73
2019-05-05T22:36:33.853Z,98920.47
2019-05-05T22:39:00.548Z,98912.94
2019-05-05T22:41:27.106Z,98913.06
2019-05-05T22:43:53.714Z,98913.53
2019-05-05T22:46:20.287Z,98911.47
2019-05-05T22:48:46.913Z,98909.30
2019-05-05T22:51:14.454Z,98911.66
2019-05-05T22:53:41.188Z,98910.99
2019-05-05T22:56:07.762Z,98904.59
2019-05-05T22:58:34.818Z,98897.72
2019-05-05T23:01:01.603Z,98901.33
2019-05-05T23:03:28.191Z,98903.97
2019-05-05T23:05:54.807Z,98900.95
2019-05-05T23:08:21.475Z,98900.02
2019-05-05T23:10:48.049Z,98899.04
2019-05-05T23:13:14.643Z,98901.20
2019-05-05T23:15:41.215Z,98904.22
2019-05-05T23:18:07.831Z,98901.11
2019-05-05T23:20:34.413Z,98885.67
2019-05-05T23:23:01.047Z,98887.37
2019-05-05T23:25:27.659Z,98888.30
2019-05-05T23:27:54.744Z,98881.72
2019-05-05T23:30:23.554Z,98886.05
2019-05-05T23:32:49.819Z,98885.30
2019-05-05T23:35:16.458Z,98883.41
2019-05-05T23:37:44.817Z,98878.70
2019-05-05T23:40:11.364Z,98888.78
2019-05-05T23:42:37.945Z,98879.18
2019-05-05T23:45:04.570Z,98876.92
2019-05-05T23:47:31.191Z,98880.87
2019-05-05T23:49:57.802Z,98880.87
2019-05-05T23:52:24.447Z,98874.75
2019-05-05T23:54:51.055Z,98879.65
2019-05-05T23:57:17.627Z,98875.13
2019-05-05T23:59:44.246Z,98874.28
